Terminal Aerodrome Forecast
Issued by NWS Amarillo, TX

Home | Current Version | Previous Version | Text Only | Print | Product List | Glossary On
Versions: 1 2 3 4 5 6 7 8 9 10 11 12 13 14 15 16 17 18 19 20
000
FTUS44 KAMA 200800 AAB
TAFGUY
TAF AMD
KGUY 200805Z 2008/2106 20006KT P6SM SCT012
     FM201100 21006KT 3SM BR BKN006
     FM201600 20009KT P6SM SCT015 SCT200
     FM210000 20005KT P6SM BKN200=

USA.gov is the U.S. government's official web portal to all federal, state and local government web resources and services.